sensor_id;sensor_type;location;lat;lon;timestamp;P1;durP1;ratioP1;P2;durP2;ratioP2
67063;SDS011;58476;48.072;11.970;2022-12-26T00:00:17;10.93;;;2.20;;
67063;SDS011;58476;48.072;11.970;2022-12-26T00:02:43;6.82;;;2.00;;
67063;SDS011;58476;48.072;11.970;2022-12-26T00:05:08;4.90;;;1.70;;
67063;SDS011;58476;48.072;11.970;2022-12-26T00:07:33;4.65;;;1.85;;
67063;SDS011;58476;48.072;11.970;2022-12-26T00:09:59;5.70;;;1.80;;
67063;SDS011;58476;48.072;11.970;2022-12-26T00:12:24;3.92;;;1.80;;
67063;SDS011;58476;48.072;11.970;2022-12-26T00:14:49;6.15;;;1.90;;
67063;SDS011;58476;48.072;11.970;2022-12-26T00:17:15;3.78;;;1.55;;
67063;SDS011;58476;48.072;11.970;2022-12-26T00:19:40;1.73;;;1.40;;
67063;SDS011;58476;48.072;11.970;2022-12-26T00:22:05;5.75;;;2.05;;
67063;SDS011;58476;48.072;11.970;2022-12-26T00:24:31;5.57;;;1.80;;
67063;SDS011;58476;48.072;11.970;2022-12-26T00:26:56;8.13;;;1.75;;
67063;SDS011;58476;48.072;11.970;2022-12-26T00:29:22;5.63;;;1.80;;
67063;SDS011;58476;48.072;11.970;2022-12-26T00:31:47;5.00;;;1.88;;
67063;SDS011;58476;48.072;11.970;2022-12-26T00:34:12;3.28;;;1.50;;
67063;SDS011;58476;48.072;11.970;2022-12-26T00:36:38;2.92;;;1.60;;
67063;SDS011;58476;48.072;11.970;2022-12-26T00:39:03;4.78;;;1.80;;
67063;SDS011;58476;48.072;11.970;2022-12-26T00:41:29;2.45;;;1.63;;
67063;SDS011;58476;48.072;11.970;2022-12-26T00:43:55;3.30;;;2.20;;
67063;SDS011;58476;48.072;11.970;2022-12-26T00:46:22;2.97;;;1.52;;
67063;SDS011;58476;48.072;11.970;2022-12-26T00:48:51;2.05;;;1.60;;
67063;SDS011;58476;48.072;11.970;2022-12-26T00:51:16;5.13;;;1.77;;
67063;SDS011;58476;48.072;11.970;2022-12-26T00:53:42;3.72;;;1.70;;
67063;SDS011;58476;48.072;11.970;2022-12-26T00:56:07;4.80;;;1.85;;
67063;SDS011;58476;48.072;11.970;2022-12-26T00:58:34;7.22;;;1.88;;
67063;SDS011;58476;48.072;11.970;2022-12-26T01:01:07;4.90;;;1.80;;
67063;SDS011;58476;48.072;11.970;2022-12-26T01:03:34;2.70;;;1.30;;
67063;SDS011;58476;48.072;11.970;2022-12-26T01:06:00;2.22;;;1.48;;
67063;SDS011;58476;48.072;11.970;2022-12-26T01:08:27;3.58;;;1.73;;
67063;SDS011;58476;48.072;11.970;2022-12-26T01:10:52;3.78;;;1.70;;
67063;SDS011;58476;48.072;11.970;2022-12-26T01:13:17;3.53;;;1.60;;
67063;SDS011;58476;48.072;11.970;2022-12-26T01:15:46;3.17;;;1.70;;
67063;SDS011;58476;48.072;11.970;2022-12-26T01:18:13;3.38;;;1.80;;
67063;SDS011;58476;48.072;11.970;2022-12-26T01:20:38;3.17;;;1.60;;
67063;SDS011;58476;48.072;11.970;2022-12-26T01:23:03;2.38;;;1.60;;
67063;SDS011;58476;48.072;11.970;2022-12-26T01:25:29;3.92;;;1.77;;
67063;SDS011;58476;48.072;11.970;2022-12-26T01:27:54;3.83;;;1.60;;
67063;SDS011;58476;48.072;11.970;2022-12-26T01:30:19;2.40;;;1.67;;
67063;SDS011;58476;48.072;11.970;2022-12-26T01:32:45;2.97;;;1.60;;
67063;SDS011;58476;48.072;11.970;2022-12-26T01:35:10;4.18;;;1.80;;
67063;SDS011;58476;48.072;11.970;2022-12-26T01:37:35;2.42;;;1.63;;
67063;SDS011;58476;48.072;11.970;2022-12-26T01:40:01;2.63;;;1.60;;
67063;SDS011;58476;48.072;11.970;2022-12-26T01:42:33;2.70;;;1.65;;
67063;SDS011;58476;48.072;11.970;2022-12-26T01:45:02;3.00;;;1.67;;
67063;SDS011;58476;48.072;11.970;2022-12-26T01:47:51;4.07;;;2.22;;
67063;SDS011;58476;48.072;11.970;2022-12-26T01:53:48;5.00;;;1.67;;
67063;SDS011;58476;48.072;11.970;2022-12-26T01:55:58;2.42;;;1.55;;
67063;SDS011;58476;48.072;11.970;2022-12-26T01:58:29;3.90;;;1.65;;
67063;SDS011;58476;48.072;11.970;2022-12-26T02:01:00;1.80;;;1.60;;
67063;SDS011;58476;48.072;11.970;2022-12-26T02:03:28;3.42;;;1.80;;
67063;SDS011;58476;48.072;11.970;2022-12-26T02:05:54;2.78;;;2.20;;
67063;SDS011;58476;48.072;11.970;2022-12-26T02:08:23;2.00;;;1.50;;
67063;SDS011;58476;48.072;11.970;2022-12-26T02:13:38;2.05;;;1.52;;
67063;SDS011;58476;48.072;11.970;2022-12-26T02:16:04;4.57;;;1.70;;
67063;SDS011;58476;48.072;11.970;2022-12-26T02:18:31;1.50;;;1.40;;
67063;SDS011;58476;48.072;11.970;2022-12-26T02:37:30;1.67;;;1.40;;
67063;SDS011;58476;48.072;11.970;2022-12-26T02:46:05;2.67;;;1.50;;
67063;SDS011;58476;48.072;11.970;2022-12-26T02:51:44;3.00;;;1.50;;
67063;SDS011;58476;48.072;11.970;2022-12-26T02:54:19;2.08;;;1.27;;
67063;SDS011;58476;48.072;11.970;2022-12-26T02:56:58;2.30;;;1.60;;
67063;SDS011;58476;48.072;11.970;2022-12-26T02:59:40;1.40;;;1.30;;
67063;SDS011;58476;48.072;11.970;2022-12-26T03:02:33;3.17;;;1.40;;
67063;SDS011;58476;48.072;11.970;2022-12-26T03:05:20;1.90;;;1.50;;
67063;SDS011;58476;48.072;11.970;2022-12-26T03:07:52;2.03;;;1.50;;
67063;SDS011;58476;48.072;11.970;2022-12-26T03:10:19;1.60;;;1.40;;
67063;SDS011;58476;48.072;11.970;2022-12-26T03:12:53;3.33;;;1.52;;
67063;SDS011;58476;48.072;11.970;2022-12-26T03:15:25;2.08;;;1.48;;
67063;SDS011;58476;48.072;11.970;2022-12-26T03:17:57;1.88;;;1.50;;
67063;SDS011;58476;48.072;11.970;2022-12-26T03:20:28;1.92;;;1.33;;
67063;SDS011;58476;48.072;11.970;2022-12-26T03:22:58;1.50;;;1.30;;
67063;SDS011;58476;48.072;11.970;2022-12-26T03:25:40;1.50;;;1.40;;
67063;SDS011;58476;48.072;11.970;2022-12-26T03:28:08;3.95;;;1.60;;
67063;SDS011;58476;48.072;11.970;2022-12-26T03:30:34;1.50;;;1.27;;
67063;SDS011;58476;48.072;11.970;2022-12-26T03:32:59;2.42;;;1.60;;
67063;SDS011;58476;48.072;11.970;2022-12-26T03:35:26;1.67;;;1.40;;
67063;SDS011;58476;48.072;11.970;2022-12-26T03:37:55;2.53;;;1.50;;
67063;SDS011;58476;48.072;11.970;2022-12-26T03:48:30;1.40;;;1.30;;
67063;SDS011;58476;48.072;11.970;2022-12-26T03:51:10;1.48;;;1.38;;
67063;SDS011;58476;48.072;11.970;2022-12-26T03:53:54;1.92;;;1.40;;
67063;SDS011;58476;48.072;11.970;2022-12-26T03:56:30;1.70;;;1.40;;
67063;SDS011;58476;48.072;11.970;2022-12-26T03:59:12;1.50;;;1.40;;
67063;SDS011;58476;48.072;11.970;2022-12-26T04:04:08;1.40;;;1.30;;
67063;SDS011;58476;48.072;11.970;2022-12-26T04:06:38;1.40;;;1.30;;
67063;SDS011;58476;48.072;11.970;2022-12-26T04:09:13;1.40;;;1.30;;
67063;SDS011;58476;48.072;11.970;2022-12-26T04:11:43;1.70;;;1.35;;
67063;SDS011;58476;48.072;11.970;2022-12-26T04:19:53;4.72;;;1.38;;
67063;SDS011;58476;48.072;11.970;2022-12-26T04:22:41;1.50;;;1.20;;
67063;SDS011;58476;48.072;11.970;2022-12-26T04:25:10;1.83;;;1.40;;
67063;SDS011;58476;48.072;11.970;2022-12-26T04:27:41;1.40;;;1.30;;
67063;SDS011;58476;48.072;11.970;2022-12-26T04:30:07;1.30;;;1.20;;
67063;SDS011;58476;48.072;11.970;2022-12-26T04:32:35;1.35;;;1.25;;
67063;SDS011;58476;48.072;11.970;2022-12-26T04:35:05;1.52;;;1.23;;
67063;SDS011;58476;48.072;11.970;2022-12-26T04:37:38;3.83;;;1.63;;
67063;SDS011;58476;48.072;11.970;2022-12-26T04:40:09;1.50;;;1.40;;
67063;SDS011;58476;48.072;11.970;2022-12-26T04:42:40;1.60;;;1.42;;
67063;SDS011;58476;48.072;11.970;2022-12-26T04:45:08;1.50;;;1.40;;
67063;SDS011;58476;48.072;11.970;2022-12-26T04:47:34;1.52;;;1.30;;
67063;SDS011;58476;48.072;11.970;2022-12-26T04:50:03;1.77;;;1.27;;
67063;SDS011;58476;48.072;11.970;2022-12-26T04:52:30;2.13;;;1.40;;
67063;SDS011;58476;48.072;11.970;2022-12-26T04:54:55;1.60;;;1.20;;
67063;SDS011;58476;48.072;11.970;2022-12-26T04:57:21;1.40;;;1.30;;
67063;SDS011;58476;48.072;11.970;2022-12-26T04:59:46;1.20;;;1.10;;
67063;SDS011;58476;48.072;11.970;2022-12-26T05:02:11;1.30;;;1.20;;
67063;SDS011;58476;48.072;11.970;2022-12-26T05:04:37;1.30;;;1.20;;
67063;SDS011;58476;48.072;11.970;2022-12-26T05:07:03;1.40;;;1.30;;
67063;SDS011;58476;48.072;11.970;2022-12-26T05:09:30;1.38;;;1.17;;
67063;SDS011;58476;48.072;11.970;2022-12-26T05:11:56;1.30;;;1.20;;
67063;SDS011;58476;48.072;11.970;2022-12-26T05:14:21;1.30;;;1.20;;
67063;SDS011;58476;48.072;11.970;2022-12-26T05:16:46;1.80;;;1.17;;
67063;SDS011;58476;48.072;11.970;2022-12-26T05:19:13;3.00;;;1.42;;
67063;SDS011;58476;48.072;11.970;2022-12-26T05:21:39;1.42;;;1.20;;
67063;SDS011;58476;48.072;11.970;2022-12-26T05:24:06;1.58;;;1.40;;
67063;SDS011;58476;48.072;11.970;2022-12-26T05:26:33;1.33;;;1.23;;
67063;SDS011;58476;48.072;11.970;2022-12-26T05:28:59;1.73;;;1.45;;
67063;SDS011;58476;48.072;11.970;2022-12-26T05:31:25;1.35;;;1.25;;
67063;SDS011;58476;48.072;11.970;2022-12-26T05:33:51;1.30;;;1.20;;
67063;SDS011;58476;48.072;11.970;2022-12-26T05:36:17;3.33;;;1.20;;
67063;SDS011;58476;48.072;11.970;2022-12-26T05:38:44;1.30;;;1.20;;
67063;SDS011;58476;48.072;11.970;2022-12-26T05:41:09;1.75;;;1.40;;
67063;SDS011;58476;48.072;11.970;2022-12-26T05:43:34;1.55;;;1.23;;
67063;SDS011;58476;48.072;11.970;2022-12-26T05:46:00;1.50;;;1.40;;
67063;SDS011;58476;48.072;11.970;2022-12-26T05:48:25;1.90;;;1.30;;
67063;SDS011;58476;48.072;11.970;2022-12-26T05:50:50;1.40;;;1.30;;
67063;SDS011;58476;48.072;11.970;2022-12-26T05:53:16;1.42;;;1.30;;
67063;SDS011;58476;48.072;11.970;2022-12-26T05:55:42;1.40;;;1.30;;
67063;SDS011;58476;48.072;11.970;2022-12-26T05:58:07;1.55;;;1.30;;
67063;SDS011;58476;48.072;11.970;2022-12-26T06:00:32;1.30;;;1.20;;
67063;SDS011;58476;48.072;11.970;2022-12-26T06:02:58;1.50;;;1.30;;
67063;SDS011;58476;48.072;11.970;2022-12-26T06:05:24;1.85;;;1.38;;
67063;SDS011;58476;48.072;11.970;2022-12-26T06:07:50;1.35;;;1.20;;
67063;SDS011;58476;48.072;11.970;2022-12-26T06:10:15;2.67;;;1.15;;
67063;SDS011;58476;48.072;11.970;2022-12-26T06:12:41;1.95;;;1.40;;
67063;SDS011;58476;48.072;11.970;2022-12-26T06:15:06;10.70;;;1.50;;
67063;SDS011;58476;48.072;11.970;2022-12-26T06:17:32;8.02;;;1.67;;
67063;SDS011;58476;48.072;11.970;2022-12-26T06:19:57;3.97;;;1.55;;
67063;SDS011;58476;48.072;11.970;2022-12-26T06:22:23;1.50;;;1.13;;
67063;SDS011;58476;48.072;11.970;2022-12-26T06:24:48;2.30;;;1.40;;
67063;SDS011;58476;48.072;11.970;2022-12-26T06:27:14;6.22;;;1.30;;
67063;SDS011;58476;48.072;11.970;2022-12-26T06:29:39;2.15;;;1.35;;
67063;SDS011;58476;48.072;11.970;2022-12-26T06:32:04;1.85;;;1.33;;
67063;SDS011;58476;48.072;11.970;2022-12-26T06:34:30;4.50;;;1.20;;
67063;SDS011;58476;48.072;11.970;2022-12-26T06:36:55;5.47;;;1.30;;
67063;SDS011;58476;48.072;11.970;2022-12-26T06:39:21;3.20;;;2.13;;
67063;SDS011;58476;48.072;11.970;2022-12-26T06:41:47;4.35;;;1.55;;
67063;SDS011;58476;48.072;11.970;2022-12-26T06:44:12;4.03;;;1.77;;
67063;SDS011;58476;48.072;11.970;2022-12-26T06:46:38;4.88;;;1.50;;
67063;SDS011;58476;48.072;11.970;2022-12-26T06:49:03;1.65;;;1.30;;
67063;SDS011;58476;48.072;11.970;2022-12-26T06:51:28;9.23;;;1.75;;
67063;SDS011;58476;48.072;11.970;2022-12-26T06:53:54;6.78;;;1.55;;
67063;SDS011;58476;48.072;11.970;2022-12-26T06:58:46;6.82;;;1.80;;
67063;SDS011;58476;48.072;11.970;2022-12-26T07:01:13;18.10;;;2.63;;
67063;SDS011;58476;48.072;11.970;2022-12-26T07:03:40;12.00;;;1.88;;
67063;SDS011;58476;48.072;11.970;2022-12-26T07:06:09;13.98;;;1.67;;
67063;SDS011;58476;48.072;11.970;2022-12-26T07:08:37;14.68;;;2.05;;
67063;SDS011;58476;48.072;11.970;2022-12-26T07:11:03;9.82;;;2.13;;
67063;SDS011;58476;48.072;11.970;2022-12-26T07:13:28;12.30;;;1.50;;
67063;SDS011;58476;48.072;11.970;2022-12-26T07:15:55;7.88;;;1.65;;
67063;SDS011;58476;48.072;11.970;2022-12-26T07:18:23;7.22;;;1.63;;
67063;SDS011;58476;48.072;11.970;2022-12-26T07:20:48;7.88;;;1.83;;
67063;SDS011;58476;48.072;11.970;2022-12-26T07:23:14;9.55;;;2.60;;
67063;SDS011;58476;48.072;11.970;2022-12-26T07:25:39;12.32;;;3.35;;
67063;SDS011;58476;48.072;11.970;2022-12-26T07:28:04;4.93;;;1.42;;
67063;SDS011;58476;48.072;11.970;2022-12-26T07:30:30;8.85;;;1.60;;
67063;SDS011;58476;48.072;11.970;2022-12-26T07:32:56;8.20;;;2.00;;
67063;SDS011;58476;48.072;11.970;2022-12-26T07:35:21;12.07;;;1.60;;
67063;SDS011;58476;48.072;11.970;2022-12-26T07:37:46;15.75;;;2.70;;
67063;SDS011;58476;48.072;11.970;2022-12-26T07:40:12;9.60;;;1.65;;
67063;SDS011;58476;48.072;11.970;2022-12-26T07:42:37;7.10;;;1.63;;
67063;SDS011;58476;48.072;11.970;2022-12-26T07:45:02;6.25;;;1.90;;
67063;SDS011;58476;48.072;11.970;2022-12-26T07:47:28;7.57;;;2.65;;
67063;SDS011;58476;48.072;11.970;2022-12-26T07:49:53;8.68;;;2.08;;
67063;SDS011;58476;48.072;11.970;2022-12-26T07:52:19;9.73;;;1.70;;
67063;SDS011;58476;48.072;11.970;2022-12-26T07:54:44;9.77;;;2.08;;
67063;SDS011;58476;48.072;11.970;2022-12-26T07:57:09;10.18;;;2.08;;
67063;SDS011;58476;48.072;11.970;2022-12-26T07:59:35;9.23;;;1.60;;
67063;SDS011;58476;48.072;11.970;2022-12-26T08:02:00;13.77;;;1.95;;
67063;SDS011;58476;48.072;11.970;2022-12-26T08:04:25;10.00;;;1.73;;
67063;SDS011;58476;48.072;11.970;2022-12-26T08:06:51;16.08;;;1.70;;
67063;SDS011;58476;48.072;11.970;2022-12-26T08:09:16;14.88;;;1.95;;
67063;SDS011;58476;48.072;11.970;2022-12-26T08:11:41;13.23;;;2.08;;
67063;SDS011;58476;48.072;11.970;2022-12-26T08:14:08;12.95;;;1.80;;
67063;SDS011;58476;48.072;11.970;2022-12-26T08:16:35;7.85;;;2.03;;
67063;SDS011;58476;48.072;11.970;2022-12-26T08:19:00;19.55;;;2.03;;
67063;SDS011;58476;48.072;11.970;2022-12-26T08:21:26;14.38;;;2.38;;
67063;SDS011;58476;48.072;11.970;2022-12-26T08:23:51;8.73;;;2.33;;
67063;SDS011;58476;48.072;11.970;2022-12-26T08:26:17;11.77;;;2.55;;
67063;SDS011;58476;48.072;11.970;2022-12-26T08:28:42;9.48;;;2.20;;
67063;SDS011;58476;48.072;11.970;2022-12-26T08:31:08;8.27;;;1.67;;
67063;SDS011;58476;48.072;11.970;2022-12-26T08:33:34;15.23;;;2.33;;
67063;SDS011;58476;48.072;11.970;2022-12-26T08:36:00;12.10;;;2.55;;
67063;SDS011;58476;48.072;11.970;2022-12-26T08:38:27;16.90;;;2.20;;
67063;SDS011;58476;48.072;11.970;2022-12-26T08:40:53;14.57;;;2.30;;
67063;SDS011;58476;48.072;11.970;2022-12-26T08:43:19;9.75;;;2.10;;
67063;SDS011;58476;48.072;11.970;2022-12-26T08:45:44;17.80;;;2.85;;
67063;SDS011;58476;48.072;11.970;2022-12-26T08:48:09;9.57;;;1.60;;
67063;SDS011;58476;48.072;11.970;2022-12-26T08:50:35;15.25;;;3.50;;
67063;SDS011;58476;48.072;11.970;2022-12-26T08:53:00;10.73;;;1.85;;
67063;SDS011;58476;48.072;11.970;2022-12-26T08:55:25;10.90;;;2.05;;
67063;SDS011;58476;48.072;11.970;2022-12-26T08:57:51;10.60;;;2.00;;
67063;SDS011;58476;48.072;11.970;2022-12-26T09:00:16;12.88;;;2.17;;
67063;SDS011;58476;48.072;11.970;2022-12-26T09:02:42;13.82;;;2.35;;
67063;SDS011;58476;48.072;11.970;2022-12-26T09:05:07;9.30;;;1.67;;
67063;SDS011;58476;48.072;11.970;2022-12-26T09:07:32;12.35;;;2.67;;
67063;SDS011;58476;48.072;11.970;2022-12-26T09:09:58;9.25;;;1.70;;
67063;SDS011;58476;48.072;11.970;2022-12-26T09:12:23;7.97;;;2.45;;
67063;SDS011;58476;48.072;11.970;2022-12-26T09:14:48;10.30;;;2.33;;
67063;SDS011;58476;48.072;11.970;2022-12-26T09:17:14;9.70;;;1.80;;
67063;SDS011;58476;48.072;11.970;2022-12-26T09:19:39;10.32;;;1.95;;
67063;SDS011;58476;48.072;11.970;2022-12-26T09:22:04;4.90;;;1.60;;
67063;SDS011;58476;48.072;11.970;2022-12-26T09:24:30;8.77;;;1.80;;
67063;SDS011;58476;48.072;11.970;2022-12-26T09:26:55;8.27;;;1.75;;
67063;SDS011;58476;48.072;11.970;2022-12-26T09:29:20;9.43;;;1.80;;
67063;SDS011;58476;48.072;11.970;2022-12-26T09:31:46;12.45;;;1.80;;
67063;SDS011;58476;48.072;11.970;2022-12-26T09:34:11;6.22;;;1.67;;
67063;SDS011;58476;48.072;11.970;2022-12-26T09:36:37;6.05;;;1.30;;
67063;SDS011;58476;48.072;11.970;2022-12-26T09:39:03;9.25;;;2.00;;
67063;SDS011;58476;48.072;11.970;2022-12-26T09:49:58;9.57;;;2.17;;
67063;SDS011;58476;48.072;11.970;2022-12-26T09:52:36;5.53;;;2.00;;
67063;SDS011;58476;48.072;11.970;2022-12-26T10:03:43;4.38;;;1.40;;
67063;SDS011;58476;48.072;11.970;2022-12-26T10:06:15;5.68;;;1.70;;
67063;SDS011;58476;48.072;11.970;2022-12-26T10:09:26;4.38;;;1.15;;
67063;SDS011;58476;48.072;11.970;2022-12-26T10:11:37;5.78;;;1.60;;
67063;SDS011;58476;48.072;11.970;2022-12-26T10:14:11;3.05;;;1.35;;
67063;SDS011;58476;48.072;11.970;2022-12-26T10:17:00;6.78;;;1.45;;
67063;SDS011;58476;48.072;11.970;2022-12-26T10:25:03;5.38;;;1.50;;
67063;SDS011;58476;48.072;11.970;2022-12-26T10:27:40;3.40;;;2.38;;
67063;SDS011;58476;48.072;11.970;2022-12-26T10:30:08;7.30;;;1.50;;
67063;SDS011;58476;48.072;11.970;2022-12-26T10:32:45;9.50;;;1.42;;
67063;SDS011;58476;48.072;11.970;2022-12-26T10:35:29;3.92;;;1.25;;
67063;SDS011;58476;48.072;11.970;2022-12-26T10:37:56;6.60;;;1.60;;
67063;SDS011;58476;48.072;11.970;2022-12-26T10:42:56;5.50;;;1.60;;
67063;SDS011;58476;48.072;11.970;2022-12-26T10:45:46;7.00;;;1.50;;
67063;SDS011;58476;48.072;11.970;2022-12-26T10:48:14;4.65;;;1.60;;
67063;SDS011;58476;48.072;11.970;2022-12-26T10:50:43;4.40;;;1.55;;
67063;SDS011;58476;48.072;11.970;2022-12-26T10:53:12;3.90;;;1.30;;
67063;SDS011;58476;48.072;11.970;2022-12-26T10:55:39;5.53;;;1.25;;
67063;SDS011;58476;48.072;11.970;2022-12-26T10:58:22;4.07;;;1.50;;
67063;SDS011;58476;48.072;11.970;2022-12-26T11:00:52;3.88;;;1.50;;
67063;SDS011;58476;48.072;11.970;2022-12-26T11:03:18;3.22;;;1.30;;
67063;SDS011;58476;48.072;11.970;2022-12-26T11:05:48;4.10;;;1.30;;
67063;SDS011;58476;48.072;11.970;2022-12-26T11:08:20;2.10;;;1.20;;
67063;SDS011;58476;48.072;11.970;2022-12-26T11:13:39;3.38;;;1.13;;
67063;SDS011;58476;48.072;11.970;2022-12-26T11:16:10;5.13;;;1.30;;
67063;SDS011;58476;48.072;11.970;2022-12-26T11:18:37;4.00;;;1.25;;
67063;SDS011;58476;48.072;11.970;2022-12-26T11:23:41;3.33;;;1.30;;
67063;SDS011;58476;48.072;11.970;2022-12-26T11:26:17;3.13;;;1.23;;
67063;SDS011;58476;48.072;11.970;2022-12-26T11:29:03;5.80;;;1.25;;
67063;SDS011;58476;48.072;11.970;2022-12-26T11:31:34;6.20;;;1.40;;
67063;SDS011;58476;48.072;11.970;2022-12-26T11:34:00;3.83;;;1.30;;
67063;SDS011;58476;48.072;11.970;2022-12-26T11:36:32;3.55;;;1.30;;
67063;SDS011;58476;48.072;11.970;2022-12-26T11:39:01;5.90;;;1.40;;
67063;SDS011;58476;48.072;11.970;2022-12-26T11:41:36;2.28;;;1.20;;
67063;SDS011;58476;48.072;11.970;2022-12-26T11:46:39;2.53;;;1.13;;
67063;SDS011;58476;48.072;11.970;2022-12-26T11:49:14;1.08;;;0.98;;
67063;SDS011;58476;48.072;11.970;2022-12-26T11:51:49;3.83;;;1.30;;
67063;SDS011;58476;48.072;11.970;2022-12-26T11:54:24;2.75;;;1.38;;
67063;SDS011;58476;48.072;11.970;2022-12-26T11:56:59;4.22;;;1.13;;
67063;SDS011;58476;48.072;11.970;2022-12-26T11:59:27;2.92;;;1.15;;
67063;SDS011;58476;48.072;11.970;2022-12-26T12:02:27;1.50;;;1.10;;
67063;SDS011;58476;48.072;11.970;2022-12-26T12:04:49;2.58;;;1.27;;
67063;SDS011;58476;48.072;11.970;2022-12-26T12:15:09;4.50;;;1.30;;
67063;SDS011;58476;48.072;11.970;2022-12-26T12:18:05;1.60;;;1.17;;
67063;SDS011;58476;48.072;11.970;2022-12-26T12:26:41;3.58;;;1.20;;
67063;SDS011;58476;48.072;11.970;2022-12-26T12:32:38;5.25;;;1.30;;
67063;SDS011;58476;48.072;11.970;2022-12-26T12:52:04;3.85;;;1.40;;
67063;SDS011;58476;48.072;11.970;2022-12-26T12:54:57;2.03;;;1.30;;
67063;SDS011;58476;48.072;11.970;2022-12-26T12:57:29;3.42;;;1.35;;
67063;SDS011;58476;48.072;11.970;2022-12-26T13:00:02;1.50;;;1.13;;
67063;SDS011;58476;48.072;11.970;2022-12-26T13:06:11;1.38;;;1.27;;
67063;SDS011;58476;48.072;11.970;2022-12-26T13:08:09;4.35;;;1.30;;
67063;SDS011;58476;48.072;11.970;2022-12-26T13:16:46;4.10;;;1.35;;
67063;SDS011;58476;48.072;11.970;2022-12-26T13:19:21;2.88;;;1.27;;
67063;SDS011;58476;48.072;11.970;2022-12-26T13:21:47;2.53;;;1.38;;
67063;SDS011;58476;48.072;11.970;2022-12-26T13:27:03;2.88;;;1.30;;
67063;SDS011;58476;48.072;11.970;2022-12-26T13:29:35;2.22;;;1.13;;
67063;SDS011;58476;48.072;11.970;2022-12-26T13:32:21;6.25;;;1.55;;
67063;SDS011;58476;48.072;11.970;2022-12-26T13:34:48;2.92;;;1.15;;
67063;SDS011;58476;48.072;11.970;2022-12-26T13:40:00;2.45;;;1.30;;
67063;SDS011;58476;48.072;11.970;2022-12-26T13:42:33;4.88;;;1.25;;
67063;SDS011;58476;48.072;11.970;2022-12-26T13:50:49;3.42;;;1.25;;
67063;SDS011;58476;48.072;11.970;2022-12-26T13:58:19;2.88;;;1.20;;
67063;SDS011;58476;48.072;11.970;2022-12-26T14:00:47;3.42;;;1.13;;
67063;SDS011;58476;48.072;11.970;2022-12-26T14:20:25;5.72;;;1.55;;
67063;SDS011;58476;48.072;11.970;2022-12-26T14:34:09;2.60;;;1.33;;
67063;SDS011;58476;48.072;11.970;2022-12-26T14:39:22;4.20;;;1.48;;
67063;SDS011;58476;48.072;11.970;2022-12-26T14:46:59;3.28;;;1.27;;
67063;SDS011;58476;48.072;11.970;2022-12-26T14:54:47;6.20;;;1.40;;
67063;SDS011;58476;48.072;11.970;2022-12-26T15:00:14;3.10;;;1.48;;
67063;SDS011;58476;48.072;11.970;2022-12-26T15:03:15;3.58;;;1.33;;
67063;SDS011;58476;48.072;11.970;2022-12-26T15:05:45;4.43;;;1.20;;
67063;SDS011;58476;48.072;11.970;2022-12-26T15:30:13;2.78;;;1.33;;
67063;SDS011;58476;48.072;11.970;2022-12-26T15:32:45;3.72;;;1.25;;
67063;SDS011;58476;48.072;11.970;2022-12-26T15:35:31;4.00;;;1.38;;
67063;SDS011;58476;48.072;11.970;2022-12-26T15:40:51;7.63;;;1.30;;
67063;SDS011;58476;48.072;11.970;2022-12-26T15:43:27;7.75;;;1.60;;
67063;SDS011;58476;48.072;11.970;2022-12-26T15:46:28;5.80;;;1.27;;
67063;SDS011;58476;48.072;11.970;2022-12-26T15:51:59;2.55;;;1.20;;
67063;SDS011;58476;48.072;11.970;2022-12-26T16:00:31;3.72;;;1.17;;
67063;SDS011;58476;48.072;11.970;2022-12-26T16:03:16;1.77;;;0.98;;
67063;SDS011;58476;48.072;11.970;2022-12-26T16:05:53;2.65;;;1.20;;
67063;SDS011;58476;48.072;11.970;2022-12-26T16:11:07;1.25;;;1.15;;
67063;SDS011;58476;48.072;11.970;2022-12-26T16:13:59;3.65;;;1.15;;
67063;SDS011;58476;48.072;11.970;2022-12-26T16:16:31;3.13;;;1.30;;
67063;SDS011;58476;48.072;11.970;2022-12-26T16:19:13;2.72;;;1.20;;
67063;SDS011;58476;48.072;11.970;2022-12-26T16:21:39;4.03;;;1.20;;
67063;SDS011;58476;48.072;11.970;2022-12-26T16:24:06;3.78;;;1.45;;
67063;SDS011;58476;48.072;11.970;2022-12-26T16:26:38;6.83;;;1.40;;
67063;SDS011;58476;48.072;11.970;2022-12-26T16:29:06;4.07;;;1.20;;
67063;SDS011;58476;48.072;11.970;2022-12-26T16:31:33;7.45;;;1.40;;
67063;SDS011;58476;48.072;11.970;2022-12-26T16:33:59;3.88;;;1.30;;
67063;SDS011;58476;48.072;11.970;2022-12-26T16:36:25;2.72;;;1.10;;
67063;SDS011;58476;48.072;11.970;2022-12-26T16:38:52;5.72;;;1.27;;
67063;SDS011;58476;48.072;11.970;2022-12-26T16:41:26;2.95;;;1.00;;
67063;SDS011;58476;48.072;11.970;2022-12-26T16:43:53;3.15;;;1.10;;
67063;SDS011;58476;48.072;11.970;2022-12-26T16:46:21;2.83;;;1.10;;
67063;SDS011;58476;48.072;11.970;2022-12-26T16:48:52;4.47;;;1.30;;
67063;SDS011;58476;48.072;11.970;2022-12-26T16:52:02;9.98;;;1.38;;
67063;SDS011;58476;48.072;11.970;2022-12-26T16:57:18;6.45;;;1.20;;
67063;SDS011;58476;48.072;11.970;2022-12-26T16:59:54;3.88;;;1.17;;
67063;SDS011;58476;48.072;11.970;2022-12-26T17:02:28;3.70;;;1.08;;
67063;SDS011;58476;48.072;11.970;2022-12-26T17:07:42;3.08;;;1.00;;
67063;SDS011;58476;48.072;11.970;2022-12-26T17:10:16;3.87;;;1.10;;
67063;SDS011;58476;48.072;11.970;2022-12-26T17:12:44;1.10;;;1.00;;
67063;SDS011;58476;48.072;11.970;2022-12-26T17:15:16;2.25;;;1.10;;
67063;SDS011;58476;48.072;11.970;2022-12-26T17:17:44;2.78;;;0.90;;
67063;SDS011;58476;48.072;11.970;2022-12-26T17:22:57;2.47;;;1.08;;
67063;SDS011;58476;48.072;11.970;2022-12-26T17:25:29;1.10;;;1.00;;
67063;SDS011;58476;48.072;11.970;2022-12-26T17:30:34;1.73;;;1.00;;
67063;SDS011;58476;48.072;11.970;2022-12-26T17:33:02;6.68;;;1.20;;
67063;SDS011;58476;48.072;11.970;2022-12-26T17:35:47;3.28;;;1.02;;
67063;SDS011;58476;48.072;11.970;2022-12-26T17:38:17;4.25;;;1.23;;
67063;SDS011;58476;48.072;11.970;2022-12-26T17:40:45;2.70;;;1.07;;
67063;SDS011;58476;48.072;11.970;2022-12-26T17:45:40;1.20;;;0.90;;
67063;SDS011;58476;48.072;11.970;2022-12-26T17:48:08;3.08;;;1.10;;
67063;SDS011;58476;48.072;11.970;2022-12-26T17:50:35;3.95;;;1.30;;
67063;SDS011;58476;48.072;11.970;2022-12-26T17:55:40;5.68;;;1.33;;
67063;SDS011;58476;48.072;11.970;2022-12-26T17:58:09;3.40;;;1.10;;
67063;SDS011;58476;48.072;11.970;2022-12-26T18:00:36;4.13;;;1.00;;
67063;SDS011;58476;48.072;11.970;2022-12-26T18:03:01;4.05;;;0.95;;
67063;SDS011;58476;48.072;11.970;2022-12-26T18:05:26;5.68;;;1.27;;
67063;SDS011;58476;48.072;11.970;2022-12-26T18:07:52;5.80;;;1.27;;
67063;SDS011;58476;48.072;11.970;2022-12-26T18:10:19;3.22;;;1.05;;
67063;SDS011;58476;48.072;11.970;2022-12-26T18:12:46;5.07;;;1.05;;
67063;SDS011;58476;48.072;11.970;2022-12-26T18:15:13;6.80;;;1.00;;
67063;SDS011;58476;48.072;11.970;2022-12-26T18:17:38;3.42;;;1.17;;
67063;SDS011;58476;48.072;11.970;2022-12-26T18:20:04;4.72;;;1.00;;
67063;SDS011;58476;48.072;11.970;2022-12-26T18:22:30;5.40;;;1.02;;
67063;SDS011;58476;48.072;11.970;2022-12-26T18:24:55;3.83;;;1.15;;
67063;SDS011;58476;48.072;11.970;2022-12-26T18:27:28;2.35;;;1.10;;
67063;SDS011;58476;48.072;11.970;2022-12-26T18:29:55;3.78;;;1.25;;
67063;SDS011;58476;48.072;11.970;2022-12-26T18:32:26;3.63;;;1.00;;
67063;SDS011;58476;48.072;11.970;2022-12-26T18:34:52;3.78;;;1.10;;
67063;SDS011;58476;48.072;11.970;2022-12-26T18:37:19;2.30;;;0.90;;
67063;SDS011;58476;48.072;11.970;2022-12-26T18:39:45;3.88;;;1.00;;
67063;SDS011;58476;48.072;11.970;2022-12-26T18:42:11;4.72;;;0.93;;
67063;SDS011;58476;48.072;11.970;2022-12-26T18:44:39;1.85;;;0.90;;